Center Moriches, New York
Current Conditions -  °F | °C
As of 7:56 PM on Saturday 22 Nov 2014 (Local Time) from KHWV Reporting Station
Overcast Overcast  
Wind Chill: 38°   Ceiling: 11000
Heat Index: 44°   Visibility: 10mi
Dew Point: 26°   Wind: 13mph
Humidity: 49%   Direction: 240°WSW
Pressure: 30.24"   Gusts: 18mph
Location:  40.8°N, 72.79°W
Report Text: KHWV 230056Z AUTO 24011G16KT 10SM SCT050 OVC110 07/M03 A3024 RMK AO2 SLP239 T00671033 TSNO
Loading
Personal Weather Stations






























Interactive Weather Map New forecast layout! Learn more

10-Day Weather Forecast

Advertisements
Track Severe Weather on mobile